createdAt,value
2023-03-29T00:00:09.990Z,5.00
2023-03-29T00:00:24.670Z,4.50
2023-03-29T00:00:37.720Z,3.28
2023-03-29T00:00:50.334Z,2.40
2023-03-29T00:01:02.949Z,5.75
2023-03-29T00:01:34.936Z,5.57
2023-03-29T00:01:47.577Z,2.38
2023-03-29T00:02:00.241Z,3.58
2023-03-29T00:02:13.163Z,3.67
2023-03-29T00:02:26.379Z,4.95
2023-03-29T00:02:38.608Z,4.65
2023-03-29T00:02:51.515Z,4.20
2023-03-29T00:03:03.803Z,4.16
2023-03-29T00:03:16.619Z,3.40
2023-03-29T00:03:28.963Z,2.20
2023-03-29T00:03:41.393Z,4.03
2023-03-29T00:03:53.558Z,4.50
2023-03-29T00:04:06.613Z,5.90
2023-03-29T00:04:18.893Z,4.93
2023-03-29T00:04:31.527Z,5.10
2023-03-29T00:04:44.346Z,2.75
2023-03-29T00:04:57.188Z,3.28
2023-03-29T00:05:10.585Z,4.72
2023-03-29T00:05:23.730Z,5.32
2023-03-29T00:05:38.607Z,5.93
2023-03-29T00:05:51.406Z,5.55
2023-03-29T00:06:04.197Z,4.35
2023-03-29T00:06:16.427Z,3.03
2023-03-29T00:06:29.990Z,2.85
2023-03-29T00:06:42.926Z,3.05
2023-03-29T00:06:55.732Z,2.80
2023-03-29T00:07:07.740Z,4.38
2023-03-29T00:07:20.779Z,4.25
2023-03-29T00:07:33.008Z,3.95
2023-03-29T00:07:45.146Z,4.15
2023-03-29T00:07:59.299Z,3.72
2023-03-29T00:08:11.739Z,3.55
2023-03-29T00:08:23.939Z,3.35
2023-03-29T00:08:37.135Z,4.70
2023-03-29T00:08:49.788Z,4.85
2023-03-29T00:09:02.294Z,4.50
2023-03-29T00:09:14.513Z,2.90
2023-03-29T00:09:27.251Z,2.95
2023-03-29T00:09:39.598Z,3.17
2023-03-29T00:09:52.437Z,3.33
2023-03-29T00:10:05.906Z,2.72
2023-03-29T00:10:18.670Z,2.97
2023-03-29T00:10:31.054Z,3.20
2023-03-29T00:10:48.583Z,3.55
2023-03-29T00:11:01.154Z,2.80
2023-03-29T00:11:13.699Z,2.13
2023-03-29T00:11:26.325Z,2.20
2023-03-29T00:11:38.309Z,2.38
2023-03-29T00:11:51.126Z,2.75
2023-03-29T00:12:03.335Z,2.78
2023-03-29T00:12:15.449Z,4.35
2023-03-29T00:12:27.198Z,4.22
2023-03-29T00:12:40.615Z,5.20
2023-03-29T00:12:52.701Z,4.40
2023-03-29T00:13:05.289Z,3.63
2023-03-29T00:13:17.839Z,4.05
2023-03-29T00:13:29.853Z,4.72
2023-03-29T00:13:41.860Z,3.13
2023-03-29T00:13:54.413Z,2.15
2023-03-29T00:14:06.727Z,2.28
2023-03-29T00:14:19.022Z,3.33
2023-03-29T00:14:31.804Z,3.85
2023-03-29T00:14:44.270Z,3.60
2023-03-29T00:14:57.001Z,3.85
2023-03-29T00:15:10.583Z,3.95
2023-03-29T00:15:23.708Z,2.83
2023-03-29T00:15:35.668Z,2.28
2023-03-29T00:15:48.096Z,4.28
2023-03-29T00:16:00.233Z,5.22
2023-03-29T00:16:12.906Z,5.80
2023-03-29T00:16:25.024Z,2.13
2023-03-29T00:16:37.493Z,3.03
2023-03-29T00:16:51.296Z,4.47
2023-03-29T00:17:04.188Z,4.05
2023-03-29T00:17:16.181Z,3.08
2023-03-29T00:17:28.205Z,3.10
2023-03-29T00:17:40.759Z,3.83
2023-03-29T00:17:53.760Z,4.03
2023-03-29T00:18:06.748Z,3.35
2023-03-29T00:18:18.881Z,3.30
2023-03-29T00:18:31.022Z,5.30
2023-03-29T00:18:43.413Z,5.05
2023-03-29T00:18:55.658Z,4.72
2023-03-29T00:19:07.949Z,4.45
2023-03-29T00:19:19.746Z,5.85
2023-03-29T00:19:32.474Z,5.30
2023-03-29T00:19:45.356Z,5.90
2023-03-29T00:19:58.149Z,5.82
2023-03-29T00:20:11.953Z,4.03
2023-03-29T00:20:24.020Z,3.20
2023-03-29T00:20:36.356Z,4.50
2023-03-29T00:20:54.952Z,5.05
2023-03-29T00:21:08.175Z,4.15
2023-03-29T00:21:20.482Z,5.60
2023-03-29T00:21:32.563Z,5.80
2023-03-29T00:21:44.744Z,5.28
2023-03-29T00:21:57.987Z,2.13
2023-03-29T00:22:10.263Z,2.80
2023-03-29T00:22:22.906Z,3.50
2023-03-29T00:22:36.516Z,4.78
2023-03-29T00:22:50.690Z,4.00
2023-03-29T00:23:04.768Z,2.88
2023-03-29T00:23:17.758Z,2.85
2023-03-29T00:23:29.673Z,3.38
2023-03-29T00:23:41.916Z,3.55
2023-03-29T00:23:56.634Z,4.60
2023-03-29T00:24:09.318Z,4.20
2023-03-29T00:24:21.829Z,3.88
2023-03-29T00:24:34.239Z,3.50
2023-03-29T00:24:46.466Z,3.72
2023-03-29T00:24:58.759Z,3.95
2023-03-29T00:25:12.243Z,4.28
2023-03-29T00:25:24.800Z,5.40
2023-03-29T00:25:36.821Z,5.72
2023-03-29T00:25:48.863Z,5.57
2023-03-29T00:26:01.407Z,4.45
2023-03-29T00:26:13.294Z,3.08
2023-03-29T00:26:25.907Z,2.58
2023-03-29T00:26:38.708Z,2.70
2023-03-29T00:26:51.264Z,5.22
2023-03-29T00:27:04.018Z,7.93
2023-03-29T00:27:15.821Z,11.73
2023-03-29T00:27:28.165Z,10.65
2023-03-29T00:27:40.625Z,6.82
2023-03-29T00:27:52.992Z,2.45
2023-03-29T00:28:05.699Z,2.35
2023-03-29T00:28:18.081Z,2.88
2023-03-29T00:28:30.251Z,3.20
2023-03-29T00:28:42.765Z,3.72
2023-03-29T00:28:57.536Z,4.63
2023-03-29T00:29:10.971Z,4.95
2023-03-29T00:29:23.815Z,3.83
2023-03-29T00:29:36.451Z,2.20
2023-03-29T00:29:48.854Z,2.25
2023-03-29T00:30:01.148Z,1.83
2023-03-29T00:30:15.379Z,1.60
2023-03-29T00:30:28.130Z,1.70
2023-03-29T00:30:40.762Z,3.13
2023-03-29T00:30:53.072Z,3.70
2023-03-29T00:31:09.458Z,3.33
2023-03-29T00:31:22.626Z,3.80
2023-03-29T00:31:35.436Z,3.70
2023-03-29T00:31:47.718Z,3.78
2023-03-29T00:32:00.131Z,3.13
2023-03-29T00:32:12.674Z,3.00
2023-03-29T00:32:25.359Z,2.53
2023-03-29T00:32:37.978Z,2.72
2023-03-29T00:32:52.010Z,2.45
2023-03-29T00:33:04.234Z,2.78
2023-03-29T00:33:16.868Z,5.13
2023-03-29T00:33:29.419Z,5.45
2023-03-29T00:33:42.572Z,4.13
2023-03-29T00:33:55.081Z,5.47
2023-03-29T00:34:07.475Z,5.97
2023-03-29T00:34:19.925Z,4.68
2023-03-29T00:34:32.289Z,4.53
2023-03-29T00:34:44.635Z,4.07
2023-03-29T00:34:57.189Z,4.38
2023-03-29T00:35:10.048Z,3.80
2023-03-29T00:35:24.224Z,4.38
2023-03-29T00:35:37.949Z,5.65
2023-03-29T00:35:52.874Z,5.13
2023-03-29T00:36:06.875Z,2.67
2023-03-29T00:36:18.950Z,2.85
2023-03-29T00:36:31.251Z,3.88
2023-03-29T00:36:44.442Z,3.88
2023-03-29T00:36:56.555Z,5.00
2023-03-29T00:37:10.503Z,3.97
2023-03-29T00:37:23.003Z,3.58
2023-03-29T00:37:35.945Z,5.13
2023-03-29T00:37:50.691Z,8.45
2023-03-29T00:38:04.476Z,7.95
2023-03-29T00:38:17.665Z,5.25
2023-03-29T00:38:29.674Z,4.63
2023-03-29T00:38:41.872Z,5.80
2023-03-29T00:38:56.266Z,5.95
2023-03-29T00:39:08.538Z,6.68
2023-03-29T00:39:21.125Z,6.45
2023-03-29T00:39:33.230Z,6.05
2023-03-29T00:39:46.163Z,6.03
2023-03-29T00:39:58.677Z,3.85
2023-03-29T00:40:11.374Z,2.38
2023-03-29T00:40:23.732Z,3.67
2023-03-29T00:40:41.628Z,4.38
2023-03-29T00:40:54.666Z,4.78
2023-03-29T00:41:07.779Z,4.22
2023-03-29T00:41:21.095Z,2.95
2023-03-29T00:41:33.418Z,3.17
2023-03-29T00:41:45.646Z,3.05
2023-03-29T00:41:57.844Z,3.15
2023-03-29T00:42:12.717Z,5.18
2023-03-29T00:42:25.328Z,6.35
2023-03-29T00:42:39.358Z,4.72
2023-03-29T00:42:51.486Z,3.85
2023-03-29T00:43:05.437Z,3.13
2023-03-29T00:43:17.708Z,2.40
2023-03-29T00:43:32.383Z,2.63
2023-03-29T00:43:57.353Z,3.28
2023-03-29T00:44:44.800Z,2.53
2023-03-29T00:45:00.482Z,4.03
2023-03-29T00:45:20.042Z,4.82
2023-03-29T00:45:33.935Z,4.20
2023-03-29T00:45:47.331Z,4.05
2023-03-29T00:45:59.578Z,3.17
2023-03-29T00:46:11.706Z,2.38
2023-03-29T00:46:24.116Z,3.08
2023-03-29T00:46:38.554Z,3.70
2023-03-29T00:46:51.285Z,3.55
2023-03-29T00:47:03.608Z,3.72
2023-03-29T00:47:16.536Z,3.08
2023-03-29T00:47:32.604Z,2.45
2023-03-29T00:47:47.966Z,3.42
2023-03-29T00:48:02.474Z,3.58
2023-03-29T00:48:18.641Z,3.70
2023-03-29T00:48:31.378Z,4.63
2023-03-29T00:48:43.919Z,4.25
2023-03-29T00:49:01.664Z,3.53
2023-03-29T00:49:14.524Z,4.65
2023-03-29T00:49:31.118Z,3.92
2023-03-29T00:49:43.561Z,4.00
2023-03-29T00:49:59.454Z,5.25
2023-03-29T00:50:15.400Z,4.63
2023-03-29T00:50:30.449Z,3.45
2023-03-29T00:50:46.206Z,3.60
2023-03-29T00:51:04.147Z,4.25
2023-03-29T00:51:19.390Z,5.03
2023-03-29T00:51:37.094Z,4.35
2023-03-29T00:51:52.635Z,5.75
2023-03-29T00:52:07.298Z,5.47
2023-03-29T00:52:21.159Z,3.88
2023-03-29T00:52:35.284Z,5.57
2023-03-29T00:52:53.038Z,7.47
2023-03-29T00:53:10.023Z,6.18
2023-03-29T00:53:27.533Z,4.80
2023-03-29T00:53:43.316Z,4.03
2023-03-29T00:53:59.128Z,3.53
2023-03-29T00:54:16.782Z,3.83
2023-03-29T00:54:31.319Z,4.03
2023-03-29T00:54:47.087Z,3.97
2023-03-29T00:55:03.059Z,4.03
2023-03-29T00:55:19.136Z,4.00
2023-03-29T00:55:37.384Z,3.75
2023-03-29T00:55:53.746Z,3.30
2023-03-29T00:56:07.972Z,4.07
2023-03-29T00:56:23.947Z,5.75
2023-03-29T00:56:38.956Z,4.63
2023-03-29T00:56:51.710Z,2.90
2023-03-29T00:57:05.186Z,3.25
2023-03-29T00:57:20.705Z,3.25
2023-03-29T00:57:34.329Z,5.47
2023-03-29T00:57:48.726Z,6.30
2023-03-29T00:58:02.528Z,5.93
2023-03-29T00:58:17.923Z,4.88
2023-03-29T00:58:35.159Z,4.00
2023-03-29T00:58:51.542Z,5.00
2023-03-29T00:59:07.512Z,3.67
2023-03-29T00:59:23.936Z,2.53
2023-03-29T00:59:37.338Z,4.50
2023-03-29T00:59:52.109Z,6.55
2023-03-29T01:00:06.895Z,6.30
2023-03-29T01:00:22.657Z,5.60
2023-03-29T01:00:39.416Z,4.72
2023-03-29T01:00:59.302Z,3.60
2023-03-29T01:01:15.758Z,5.82
2023-03-29T01:01:32.506Z,5.55
2023-03-29T01:01:50.542Z,4.03
2023-03-29T01:02:05.618Z,3.63
2023-03-29T01:02:23.619Z,3.10
2023-03-29T01:02:38.053Z,5.60
2023-03-29T01:02:53.769Z,6.18
2023-03-29T01:03:09.506Z,4.90
2023-03-29T01:03:28.421Z,6.65
2023-03-29T01:03:47.010Z,5.80
2023-03-29T01:04:04.680Z,3.50
2023-03-29T01:04:23.677Z,3.55
2023-03-29T01:04:40.317Z,4.57
2023-03-29T01:04:57.552Z,5.82
2023-03-29T01:05:15.546Z,5.25
2023-03-29T01:05:32.084Z,5.32
2023-03-29T01:05:48.581Z,4.07
2023-03-29T01:06:04.733Z,4.03
2023-03-29T01:06:19.941Z,3.60
2023-03-29T01:06:36.398Z,3.13
2023-03-29T01:06:55.668Z,4.07
2023-03-29T01:07:13.815Z,5.60
2023-03-29T01:07:33.327Z,8.45
2023-03-29T01:07:50.865Z,10.82
2023-03-29T01:08:06.450Z,8.35
2023-03-29T01:08:24.068Z,5.32
2023-03-29T01:08:44.245Z,7.70
2023-03-29T01:09:01.445Z,4.85
2023-03-29T01:09:19.144Z,5.22
2023-03-29T01:09:35.894Z,5.05
2023-03-29T01:09:54.327Z,5.15
2023-03-29T01:10:11.322Z,3.80
2023-03-29T01:10:31.814Z,4.63
2023-03-29T01:10:47.717Z,5.00
2023-03-29T01:11:07.003Z,10.18
2023-03-29T01:11:22.427Z,9.05
2023-03-29T01:11:40.145Z,3.45
2023-03-29T01:11:56.106Z,3.67
2023-03-29T01:12:15.573Z,5.10
2023-03-29T01:12:33.626Z,4.05
2023-03-29T01:12:50.300Z,5.13
2023-03-29T01:13:07.112Z,6.30
2023-03-29T01:13:27.905Z,6.15
2023-03-29T01:13:46.764Z,4.72
2023-03-29T01:14:01.990Z,4.57
2023-03-29T01:14:19.451Z,4.70
2023-03-29T01:14:37.942Z,5.68
2023-03-29T01:14:54.622Z,6.05
2023-03-29T01:15:11.130Z,3.60
2023-03-29T01:15:25.863Z,2.35
2023-03-29T01:15:42.072Z,3.47
2023-03-29T01:15:57.109Z,5.72
2023-03-29T01:16:12.634Z,4.75
2023-03-29T01:16:26.534Z,4.18
2023-03-29T01:16:38.786Z,3.67
2023-03-29T01:16:52.271Z,4.38
2023-03-29T01:17:09.177Z,4.03
2023-03-29T01:17:21.647Z,2.85
2023-03-29T01:17:34.078Z,3.20
2023-03-29T01:17:47.308Z,5.32
2023-03-29T01:18:00.006Z,5.22
2023-03-29T01:18:12.520Z,4.57
2023-03-29T01:18:25.144Z,3.92
2023-03-29T01:18:37.814Z,4.07
2023-03-29T01:18:50.084Z,3.65
2023-03-29T01:19:02.531Z,3.42
2023-03-29T01:19:20.537Z,3.92
2023-03-29T01:19:39.842Z,4.72
2023-03-29T01:19:56.346Z,3.80
2023-03-29T01:20:14.668Z,4.53
2023-03-29T01:20:41.074Z,6.07
2023-03-29T01:21:19.790Z,4.78
2023-03-29T01:21:37.584Z,3.47
2023-03-29T01:21:52.894Z,3.22
2023-03-29T01:22:17.323Z,2.80
2023-03-29T01:22:40.352Z,4.28
2023-03-29T01:23:12.426Z,5.32
2023-03-29T01:23:54.639Z,2.95
2023-03-29T01:24:24.040Z,3.90
2023-03-29T01:24:54.818Z,6.35
2023-03-29T01:25:13.284Z,3.97
2023-03-29T01:25:35.404Z,4.00
2023-03-29T01:25:56.521Z,3.80
2023-03-29T01:26:14.946Z,2.63
2023-03-29T01:26:36.598Z,3.42
2023-03-29T01:26:57.556Z,5.03
2023-03-29T01:27:15.750Z,5.43
2023-03-29T01:27:47.256Z,3.88
2023-03-29T01:28:04.005Z,4.00
2023-03-29T01:28:19.014Z,4.25
2023-03-29T01:28:37.394Z,3.70
2023-03-29T01:28:55.478Z,4.00
2023-03-29T01:29:11.566Z,5.15
2023-03-29T01:29:27.623Z,6.75
2023-03-29T01:29:44.190Z,6.47
2023-03-29T01:30:02.056Z,3.97
2023-03-29T01:30:19.351Z,6.20
2023-03-29T01:30:39.111Z,6.07
2023-03-29T01:31:02.014Z,3.75
2023-03-29T01:31:21.570Z,7.07
2023-03-29T01:31:37.511Z,4.70
2023-03-29T01:31:53.021Z,4.80
2023-03-29T01:32:11.091Z,7.55
2023-03-29T01:32:27.582Z,5.97
2023-03-29T01:32:45.893Z,4.15
2023-03-29T01:33:02.846Z,3.95
2023-03-29T01:33:18.535Z,4.10
2023-03-29T01:33:34.240Z,3.88
2023-03-29T01:33:51.802Z,7.50
2023-03-29T01:34:10.030Z,8.05
2023-03-29T01:34:27.615Z,8.35
2023-03-29T01:34:45.436Z,5.53
2023-03-29T01:35:01.688Z,3.30
2023-03-29T01:35:19.306Z,3.45
2023-03-29T01:35:37.581Z,3.63
2023-03-29T01:35:56.986Z,4.28
2023-03-29T01:36:16.114Z,5.38
2023-03-29T01:36:33.426Z,3.53
2023-03-29T01:36:51.103Z,4.45
2023-03-29T01:37:09.557Z,5.85
2023-03-29T01:37:25.761Z,5.10
2023-03-29T01:37:41.368Z,5.03
2023-03-29T01:37:59.142Z,6.35
2023-03-29T01:38:16.811Z,4.75
2023-03-29T01:38:35.021Z,4.07
2023-03-29T01:38:52.816Z,3.78
2023-03-29T01:39:07.312Z,5.35
2023-03-29T01:39:20.482Z,4.78
2023-03-29T01:39:33.412Z,3.95
2023-03-29T01:39:46.672Z,4.07
2023-03-29T01:39:59.049Z,4.45
2023-03-29T01:40:12.298Z,4.32
2023-03-29T01:40:25.291Z,3.00
2023-03-29T01:40:37.564Z,2.55
2023-03-29T01:40:49.836Z,3.20
2023-03-29T01:41:02.228Z,3.80
2023-03-29T01:41:14.704Z,3.33
2023-03-29T01:41:36.776Z,4.00
2023-03-29T01:42:03.089Z,4.55
2023-03-29T01:42:29.684Z,5.50
2023-03-29T01:42:49.658Z,4.00
2023-03-29T01:43:09.943Z,3.92
2023-03-29T01:43:27.592Z,3.42
2023-03-29T01:43:45.128Z,4.25
2023-03-29T01:44:04.520Z,3.42
2023-03-29T01:44:21.566Z,7.90
2023-03-29T01:44:40.617Z,7.35
2023-03-29T01:45:03.591Z,4.72
2023-03-29T01:45:24.686Z,4.95
2023-03-29T01:45:42.376Z,4.85
2023-03-29T01:46:03.685Z,4.15
2023-03-29T01:46:29.361Z,5.03
2023-03-29T01:46:46.182Z,6.72
2023-03-29T01:47:06.980Z,6.53
2023-03-29T01:47:29.499Z,5.25
2023-03-29T01:47:47.720Z,3.40
2023-03-29T01:48:06.486Z,4.25
2023-03-29T01:48:28.917Z,6.80
2023-03-29T01:48:48.834Z,5.95
2023-03-29T01:49:04.260Z,4.63
2023-03-29T01:49:24.376Z,5.60
2023-03-29T01:49:41.647Z,4.38
2023-03-29T01:50:00.644Z,4.90
2023-03-29T01:50:18.188Z,5.60
2023-03-29T01:50:41.992Z,5.43
2023-03-29T01:50:58.398Z,4.18
2023-03-29T01:51:16.374Z,3.63
2023-03-29T01:51:35.758Z,6.03
2023-03-29T01:51:54.946Z,6.47
2023-03-29T01:52:13.953Z,5.25
2023-03-29T01:52:32.278Z,4.57
2023-03-29T01:52:50.238Z,4.47
2023-03-29T01:53:06.829Z,4.03
2023-03-29T01:53:25.041Z,4.57
2023-03-29T01:53:42.364Z,4.88
2023-03-29T01:53:59.706Z,3.97
2023-03-29T01:54:19.168Z,3.78
2023-03-29T01:54:35.595Z,4.30
2023-03-29T01:54:53.767Z,6.07
2023-03-29T01:55:13.102Z,8.02
2023-03-29T01:55:32.268Z,6.18
2023-03-29T01:55:49.998Z,3.53
2023-03-29T01:56:07.208Z,4.25
2023-03-29T01:56:22.499Z,3.74
2023-03-29T01:56:39.241Z,5.05
2023-03-29T01:56:53.422Z,6.07
2023-03-29T01:57:07.520Z,6.78
2023-03-29T01:57:21.708Z,6.30
2023-03-29T01:57:40.147Z,3.72
2023-03-29T01:57:56.558Z,4.07
2023-03-29T01:58:12.330Z,3.78
2023-03-29T01:58:29.732Z,4.43
2023-03-29T01:58:45.018Z,4.60
2023-03-29T01:59:00.802Z,4.68
2023-03-29T01:59:17.126Z,3.72
2023-03-29T01:59:33.606Z,3.55
2023-03-29T01:59:47.194Z,4.00
2023-03-29T02:00:01.580Z,4.18
2023-03-29T02:00:26.470Z,3.75
2023-03-29T02:00:40.164Z,4.10
2023-03-29T02:00:53.833Z,4.85
2023-03-29T02:01:08.800Z,4.60
2023-03-29T02:01:27.445Z,3.33
2023-03-29T02:01:45.599Z,3.60
2023-03-29T02:02:00.485Z,3.47
2023-03-29T02:02:15.826Z,3.50
2023-03-29T02:02:30.988Z,3.97
2023-03-29T02:02:45.446Z,4.25
2023-03-29T02:03:02.248Z,4.03
2023-03-29T02:03:15.829Z,4.10
2023-03-29T02:03:30.971Z,4.45
2023-03-29T02:03:45.973Z,4.90
2023-03-29T02:04:03.636Z,4.53
2023-03-29T02:04:22.883Z,5.38
2023-03-29T02:04:38.535Z,5.55
2023-03-29T02:04:53.928Z,6.97
2023-03-29T02:05:07.975Z,5.85
2023-03-29T02:05:24.536Z,3.75
2023-03-29T02:05:39.529Z,4.05
2023-03-29T02:05:52.757Z,4.03
2023-03-29T02:06:08.143Z,3.85
2023-03-29T02:06:24.125Z,7.82
2023-03-29T02:06:39.258Z,7.90
2023-03-29T02:06:54.708Z,4.35
2023-03-29T02:07:10.368Z,5.40
2023-03-29T02:07:27.041Z,6.03
2023-03-29T02:07:39.965Z,3.20
2023-03-29T02:07:53.393Z,4.32
2023-03-29T02:08:08.865Z,5.55
2023-03-29T02:08:22.850Z,6.28
2023-03-29T02:08:36.831Z,6.13
2023-03-29T02:08:49.211Z,3.97
2023-03-29T02:09:01.777Z,3.80
2023-03-29T02:09:14.461Z,4.95
2023-03-29T02:09:29.281Z,7.10
2023-03-29T02:09:42.577Z,6.30
2023-03-29T02:09:54.640Z,5.28
2023-03-29T02:10:08.774Z,4.22
2023-03-29T02:10:23.507Z,4.43
2023-03-29T02:10:38.024Z,3.70
2023-03-29T02:10:50.686Z,3.63
2023-03-29T02:11:03.132Z,4.80
2023-03-29T02:11:20.120Z,4.85
2023-03-29T02:11:33.927Z,4.25
2023-03-29T02:11:48.503Z,3.65
2023-03-29T02:12:02.363Z,5.50
2023-03-29T02:12:19.727Z,6.70
2023-03-29T02:12:32.366Z,4.72
2023-03-29T02:12:47.313Z,4.40
2023-03-29T02:13:01.001Z,5.07
2023-03-29T02:13:13.451Z,6.20
2023-03-29T02:13:25.496Z,6.35
2023-03-29T02:13:38.070Z,5.47
2023-03-29T02:13:50.755Z,5.43
2023-03-29T02:14:04.235Z,7.72
2023-03-29T02:14:16.479Z,6.72
2023-03-29T02:14:28.853Z,5.82
2023-03-29T02:14:40.918Z,5.25
2023-03-29T02:14:53.509Z,5.85
2023-03-29T02:15:11.563Z,5.00
2023-03-29T02:15:25.318Z,3.67
2023-03-29T02:15:37.753Z,3.85
2023-03-29T02:15:50.235Z,4.00
2023-03-29T02:16:08.557Z,5.20
2023-03-29T02:16:21.348Z,6.57
2023-03-29T02:16:35.621Z,4.95
2023-03-29T02:16:50.526Z,4.28
2023-03-29T02:17:15.803Z,4.05
2023-03-29T02:17:28.404Z,3.88
2023-03-29T02:17:41.496Z,5.65
2023-03-29T02:17:54.221Z,5.57
2023-03-29T02:18:07.472Z,3.58
2023-03-29T02:18:20.656Z,4.25
2023-03-29T02:18:34.694Z,5.57
2023-03-29T02:18:50.997Z,8.20
2023-03-29T02:19:06.111Z,8.02
2023-03-29T02:19:22.153Z,4.05
2023-03-29T02:19:35.628Z,3.30
2023-03-29T02:19:50.528Z,3.47
2023-03-29T02:20:06.824Z,5.03
2023-03-29T02:20:24.076Z,5.82
2023-03-29T02:20:41.610Z,3.70
2023-03-29T02:20:57.130Z,4.43
2023-03-29T02:21:16.412Z,5.38
2023-03-29T02:21:35.759Z,5.40
2023-03-29T02:21:54.538Z,4.15
2023-03-29T02:22:09.538Z,4.38
2023-03-29T02:22:27.549Z,4.50
2023-03-29T02:22:47.478Z,5.70
2023-03-29T02:23:05.328Z,6.55
2023-03-29T02:23:22.581Z,6.22
2023-03-29T02:23:39.640Z,5.40
2023-03-29T02:23:54.990Z,5.28
2023-03-29T02:24:10.711Z,5.22
2023-03-29T02:24:25.539Z,3.88
2023-03-29T02:24:41.440Z,5.63
2023-03-29T02:24:56.706Z,8.02
2023-03-29T02:25:10.198Z,5.55
2023-03-29T02:25:24.778Z,4.25
2023-03-29T02:25:39.206Z,4.28
2023-03-29T02:25:54.008Z,4.68
2023-03-29T02:26:08.218Z,4.45
2023-03-29T02:26:21.428Z,5.70
2023-03-29T02:26:34.062Z,5.80
2023-03-29T02:26:46.787Z,4.57
2023-03-29T02:26:59.337Z,4.53
2023-03-29T02:27:13.085Z,4.25
2023-03-29T02:27:29.201Z,4.43
2023-03-29T02:27:42.975Z,6.03
2023-03-29T02:27:55.710Z,6.18
2023-03-29T02:28:09.931Z,4.30
2023-03-29T02:28:24.793Z,4.97
2023-03-29T02:28:38.576Z,4.68
2023-03-29T02:28:51.536Z,4.38
2023-03-29T02:29:04.127Z,4.47
2023-03-29T02:29:17.163Z,4.55
2023-03-29T02:29:29.994Z,4.32
2023-03-29T02:29:43.204Z,4.28
2023-03-29T02:29:58.531Z,3.72
2023-03-29T02:30:13.070Z,5.80
2023-03-29T02:30:30.600Z,6.05
2023-03-29T02:30:50.589Z,4.50
2023-03-29T02:31:09.311Z,5.43
2023-03-29T02:31:25.623Z,4.95
2023-03-29T02:31:42.435Z,5.47
2023-03-29T02:32:00.530Z,4.18
2023-03-29T02:32:17.453Z,4.75
2023-03-29T02:32:36.231Z,6.50
2023-03-29T02:32:53.944Z,4.82
2023-03-29T02:33:13.774Z,3.15
2023-03-29T02:33:30.432Z,3.95
2023-03-29T02:33:49.132Z,3.92
2023-03-29T02:34:04.771Z,3.53
2023-03-29T02:34:24.215Z,4.00
2023-03-29T02:34:42.504Z,6.03
2023-03-29T02:34:57.908Z,7.50
2023-03-29T02:35:14.828Z,5.10
2023-03-29T02:35:33.081Z,4.82
2023-03-29T02:36:09.043Z,4.80
2023-03-29T02:36:26.697Z,4.68
2023-03-29T02:36:42.533Z,4.07
2023-03-29T02:36:57.835Z,3.92
2023-03-29T02:37:14.911Z,4.47
2023-03-29T02:37:30.388Z,3.78
2023-03-29T02:37:46.215Z,3.97
2023-03-29T02:37:59.523Z,4.18
2023-03-29T02:38:12.940Z,5.18
2023-03-29T02:38:27.386Z,6.40
2023-03-29T02:38:40.596Z,7.07
2023-03-29T02:38:53.645Z,8.30
2023-03-29T02:39:08.004Z,7.90
2023-03-29T02:39:22.683Z,4.97
2023-03-29T02:39:36.075Z,5.10
2023-03-29T02:39:49.924Z,4.18
2023-03-29T02:40:03.747Z,4.05
2023-03-29T02:40:17.698Z,4.68
2023-03-29T02:40:31.405Z,5.68
2023-03-29T02:40:45.046Z,5.75
2023-03-29T02:40:59.993Z,9.70
2023-03-29T02:41:13.179Z,10.68
2023-03-29T02:41:27.040Z,5.53
2023-03-29T02:41:41.393Z,5.63
2023-03-29T02:41:55.573Z,8.05
2023-03-29T02:42:10.516Z,5.57
2023-03-29T02:42:24.645Z,4.65
2023-03-29T02:42:38.084Z,6.10
2023-03-29T02:42:50.038Z,7.45
2023-03-29T02:43:03.465Z,7.72
2023-03-29T02:43:17.512Z,7.93
2023-03-29T02:43:31.517Z,6.85
2023-03-29T02:43:46.495Z,5.18
2023-03-29T02:44:00.608Z,5.65
2023-03-29T02:44:16.103Z,6.20
2023-03-29T02:44:32.097Z,7.68
2023-03-29T02:44:49.601Z,7.05
2023-03-29T02:45:04.281Z,4.00
2023-03-29T02:45:18.393Z,6.53
2023-03-29T02:45:31.140Z,6.15
2023-03-29T02:45:44.962Z,5.18
2023-03-29T02:45:58.480Z,5.72
2023-03-29T02:46:12.798Z,6.32
2023-03-29T02:46:25.749Z,10.02
2023-03-29T02:46:38.554Z,8.27
2023-03-29T02:46:53.986Z,6.57
2023-03-29T02:47:12.511Z,4.68
2023-03-29T02:47:31.068Z,6.15
2023-03-29T02:47:46.564Z,7.30
2023-03-29T02:48:02.027Z,8.27
2023-03-29T02:48:20.397Z,8.82
2023-03-29T02:48:35.247Z,5.78
2023-03-29T02:48:50.995Z,5.20
2023-03-29T02:49:03.949Z,5.66
2023-03-29T02:49:16.530Z,4.13
2023-03-29T02:49:30.309Z,3.90
2023-03-29T02:49:42.315Z,4.80
2023-03-29T02:49:54.990Z,6.18
2023-03-29T02:50:08.350Z,7.70
2023-03-29T02:50:21.625Z,7.53
2023-03-29T02:50:37.303Z,6.72
2023-03-29T02:50:54.238Z,5.82
2023-03-29T02:51:14.441Z,5.60
2023-03-29T02:51:31.330Z,5.28
2023-03-29T02:51:46.028Z,5.30
2023-03-29T02:52:06.274Z,8.73
2023-03-29T02:52:24.033Z,5.25
2023-03-29T02:52:39.650Z,5.28
2023-03-29T02:52:54.898Z,7.05
2023-03-29T02:53:12.829Z,6.45
2023-03-29T02:53:35.627Z,4.38
2023-03-29T02:53:52.784Z,6.55
2023-03-29T02:54:09.697Z,4.85
2023-03-29T02:54:24.550Z,4.57
2023-03-29T02:54:38.556Z,4.40
2023-03-29T02:54:54.019Z,5.18
2023-03-29T02:55:12.128Z,5.15
2023-03-29T02:55:26.626Z,6.00
2023-03-29T02:55:39.404Z,8.44
2023-03-29T02:55:53.750Z,7.30
2023-03-29T02:56:07.772Z,4.53
2023-03-29T02:56:20.815Z,3.72
2023-03-29T02:56:42.600Z,3.70
2023-03-29T02:56:57.305Z,6.47
2023-03-29T02:57:10.846Z,7.05
2023-03-29T02:57:24.573Z,4.42
2023-03-29T02:57:37.208Z,5.43
2023-03-29T02:57:49.762Z,8.40
2023-03-29T02:58:01.935Z,7.30
2023-03-29T02:58:14.497Z,5.25
2023-03-29T02:58:28.576Z,5.35
2023-03-29T02:58:40.956Z,5.25
2023-03-29T02:58:53.462Z,4.78
2023-03-29T02:59:05.661Z,3.95
2023-03-29T02:59:19.823Z,4.45
2023-03-29T02:59:32.935Z,5.63
2023-03-29T02:59:44.819Z,5.15
2023-03-29T02:59:58.420Z,5.50
2023-03-29T03:00:12.436Z,6.45
2023-03-29T03:00:25.158Z,6.07
2023-03-29T03:00:39.455Z,5.60
2023-03-29T03:00:51.951Z,5.00
2023-03-29T03:01:07.787Z,4.70
2023-03-29T03:01:20.471Z,4.40
2023-03-29T03:01:34.807Z,4.18
2023-03-29T03:01:47.078Z,4.50
2023-03-29T03:02:00.276Z,6.28
2023-03-29T03:02:14.315Z,6.78
2023-03-29T03:02:28.187Z,6.43
2023-03-29T03:02:41.441Z,6.28
2023-03-29T03:02:55.375Z,4.57
2023-03-29T03:03:09.140Z,4.72
2023-03-29T03:03:22.185Z,5.63
2023-03-29T03:03:35.350Z,6.85
2023-03-29T03:03:48.583Z,6.90
2023-03-29T03:04:00.999Z,5.75
2023-03-29T03:04:13.846Z,6.43
2023-03-29T03:04:26.209Z,6.53
2023-03-29T03:04:39.659Z,5.40
2023-03-29T03:04:51.771Z,4.20
2023-03-29T03:05:04.286Z,4.97
2023-03-29T03:05:16.957Z,8.38
2023-03-29T03:05:29.774Z,7.63
2023-03-29T03:05:41.935Z,6.43
2023-03-29T03:05:54.315Z,4.80
2023-03-29T03:06:07.294Z,4.72
2023-03-29T03:06:19.500Z,5.12
2023-03-29T03:06:32.001Z,6.05
2023-03-29T03:06:44.236Z,5.90
2023-03-29T03:06:56.255Z,4.68
2023-03-29T03:07:08.587Z,5.28
2023-03-29T03:07:21.067Z,6.45
2023-03-29T03:07:34.082Z,6.50
2023-03-29T03:07:46.909Z,6.03
2023-03-29T03:07:59.969Z,5.97
2023-03-29T03:08:12.019Z,6.18
2023-03-29T03:08:24.164Z,7.32
2023-03-29T03:08:36.409Z,6.18
2023-03-29T03:08:48.629Z,7.05
2023-03-29T03:09:00.711Z,8.07
2023-03-29T03:09:19.937Z,6.22
2023-03-29T03:09:32.894Z,4.85
2023-03-29T03:09:45.018Z,7.00
2023-03-29T03:09:56.955Z,13.23
2023-03-29T03:10:10.896Z,14.02
2023-03-29T03:10:24.002Z,10.40
2023-03-29T03:10:36.555Z,10.15
2023-03-29T03:10:49.982Z,6.95
2023-03-29T03:11:05.474Z,5.15
2023-03-29T03:11:17.450Z,5.57
2023-03-29T03:11:31.744Z,7.30
2023-03-29T03:11:44.371Z,6.22
2023-03-29T03:11:57.030Z,3.38
2023-03-29T03:12:10.778Z,6.40
2023-03-29T03:12:23.132Z,7.18
2023-03-29T03:12:35.419Z,7.45
2023-03-29T03:12:48.110Z,6.40
2023-03-29T03:13:00.394Z,6.70
2023-03-29T03:13:15.259Z,6.28
2023-03-29T03:13:28.815Z,6.78
2023-03-29T03:13:41.880Z,6.20
2023-03-29T03:13:53.889Z,5.32
2023-03-29T03:14:06.244Z,5.43
2023-03-29T03:14:19.783Z,4.85
2023-03-29T03:14:32.557Z,4.85
2023-03-29T03:14:46.592Z,7.70
2023-03-29T03:14:59.124Z,8.75
2023-03-29T03:15:12.127Z,9.27
2023-03-29T03:15:25.304Z,4.53
2023-03-29T03:15:37.826Z,4.75
2023-03-29T03:15:50.170Z,6.70
2023-03-29T03:16:03.242Z,8.88
2023-03-29T03:16:16.743Z,6.35
2023-03-29T03:16:29.435Z,4.10
2023-03-29T03:16:42.788Z,5.05
2023-03-29T03:16:55.621Z,5.93
2023-03-29T03:17:08.296Z,6.78
2023-03-29T03:17:20.545Z,6.72
2023-03-29T03:17:33.203Z,5.75
2023-03-29T03:17:46.462Z,5.22
2023-03-29T03:17:59.280Z,4.40
2023-03-29T03:18:12.710Z,4.30
2023-03-29T03:18:24.799Z,3.83
2023-03-29T03:18:36.934Z,4.80
2023-03-29T03:18:49.508Z,5.57
2023-03-29T03:19:01.878Z,5.13
2023-03-29T03:19:14.603Z,3.83
2023-03-29T03:19:29.031Z,4.65
2023-03-29T03:19:41.250Z,5.70
2023-03-29T03:19:56.406Z,5.57
2023-03-29T03:20:11.011Z,6.25
2023-03-29T03:20:23.667Z,6.88
2023-03-29T03:20:35.804Z,7.90